الصفحة الرئيسية
METAR-TAF:

METAR-TAF

مطار :

Liberia, كوستاريكا

دائرة عرض: 10-37N, خط طول: 085-26W, ارتفاع: 80 متر

مراقبة الطقس الحالي

تاريخ ووقت الإصدار 33 دقيقة قبل الساعة 02:00UTC
رياح هادئة
درجة الحرارة 24°درجة مئوية
الرطوبة 100%
ضغط 1011 hPa
الرؤية 10 كم أو أكثر
غيوم قليلة على ارتفاع 2000 قدم
غيوم متفرقة على ارتفاع 4000 قدم
غيوم مفككة على ارتفاع 14000 قدم

METAR: MRLB 260200Z 00000KT 9999 FEW020 SCT040 BKN140 24/24 A2984 NOSIG

زمن: 20:33 (02:33 UTC)

توقعات

تاريخ ووقت الإصدار 3ساعات و 33 دقيقة قبل الساعة 23:00UTC
التوقعات صالحة من26 الساعة 00 UTC إلى 26 الساعة 24 UTC
ريح 7 عقدة من الشرق
الرؤية 10 كم أو أكثر
غيوم متفرقة على ارتفاع 2000 قدم
مؤقت
من 26 الساعة 00 UTC إلى 26 الساعة 04 UTC
الرؤية: 5000 متر
غيوم مفككة على ارتفاع 2000 قدم
مطر
أصبح
من 26 الساعة 15 UTC إلى 26 الساعة 18 UTC
ريح 7 عقدة من الغرب
مؤقت
من 26 الساعة 21 UTC إلى 26 الساعة 24 UTC
الرؤية: 5000 متر
غيوم قليلة على ارتفاع 2000 قدم, مزنة ركامية.
عاصفة رعدية, مطر

TAF: MRLB 252300Z 2600/2624 09007KT 9999 SCT020 TX32/2619Z TN22/2610Z TEMPO 2600/2604 5000 RA BKN020 BECMG 2615/2618 27007KT TEMPO 2621/2624 5000 TSRA FEW020CB

أرصاد الطقس والتوقعات من أكثر من 4000 مطار (تقارير الطقس للمطار METAR والتنبؤ بالطقس بالمطارTAF).

المحطات المتاحة هي النقط الصفراء والحمراء على الخريطة.

حرك المؤشر فوق النقطة لمعرفة اسم المحطة.

ثم انقر لمعرفة أرصاد وتوقعات الطقس.

لتغيير الخارطة: اضغط على الأزرار الخضراء مع رمز الصليب الأسود للتكبير. على الزر الأخضر مع شرطة للتصغير، أو على الأسهم الخضراء للخرائط المجاورة.


METAR-TAF: